Time;durP1;ratioP1;P1;durP2;ratioP2;P2;SDS_P1;SDS_P2;PMS_P1;PMS_P2;Temp;Humidity;BMP_temperature;BMP_pressure;BME280_temperature;BME280_humidity;BME280_pressure;Samples;Min_cycle;Max_cycle;Signal;HPM_P1;HPM_P2
2023/10/03 00:00:59;;;;;;;50.45;28.23;;;17.80;96.00;;;;;;5110453;28;20075;-84
2023/10/03 00:03:26;;;;;;;53.22;31.20;;;17.80;96.00;;;;;;5113866;28;20126;-83
2023/10/03 00:05:51;;;;;;;48.90;29.98;;;17.80;96.00;;;;;;5114041;28;20042;-82
2023/10/03 00:08:18;;;;;;;43.97;26.38;;;17.90;96.00;;;;;;5096847;28;20126;-85
2023/10/03 00:10:45;;;;;;;48.17;28.80;;;17.90;95.90;;;;;;5112894;28;20123;-81
2023/10/03 00:13:11;;;;;;;51.53;28.52;;;17.90;95.80;;;;;;5097482;28;20044;-81
2023/10/03 00:15:43;;;;;;;53.15;29.73;;;17.90;95.80;;;;;;5097045;28;20040;-82
2023/10/03 00:18:10;;;;;;;51.67;30.38;;;17.90;95.70;;;;;;5113820;28;20108;-83
2023/10/03 00:20:36;;;;;;;49.47;29.88;;;17.90;95.70;;;;;;5114013;28;20364;-82
2023/10/03 00:23:04;;;;;;;53.83;30.13;;;17.90;95.70;;;;;;5096816;28;20395;-85
2023/10/03 00:25:30;;;;;;;53.88;31.50;;;17.90;95.80;;;;;;5079961;28;20039;-81
2023/10/03 00:28:00;;;;;;;50.50;30.15;;;17.90;95.70;;;;;;5095459;28;20126;-83
2023/10/03 00:30:30;;;;;;;55.22;31.92;;;17.90;95.80;;;;;;5096827;28;20400;-84
2023/10/03 00:32:57;;;;;;;57.70;31.17;;;17.90;95.70;;;;;;5079764;28;20131;-87
2023/10/03 00:35:27;;;;;;;51.50;30.92;;;17.90;95.60;;;;;;5113285;28;20487;-82
2023/10/03 00:37:53;;;;;;;49.33;28.73;;;17.90;95.60;;;;;;5097024;28;20045;-84
2023/10/03 00:42:51;;;;;;;46.63;28.85;;;17.90;95.50;;;;;;5096088;28;20105;-81
2023/10/03 00:45:25;;;;;;;48.47;29.73;;;18.00;95.40;;;;;;5095104;28;20044;-83
2023/10/03 00:47:54;;;;;;;48.55;31.00;;;18.00;95.30;;;;;;5096237;28;20051;-85
2023/10/03 00:50:23;;;;;;;49.55;29.20;;;18.00;95.20;;;;;;5112049;28;20044;-80
2023/10/03 00:52:57;;;;;;;47.65;28.70;;;18.00;95.10;;;;;;5113208;28;20036;-82
2023/10/03 00:55:26;;;;;;;46.35;29.92;;;17.90;95.10;;;;;;5112906;28;20079;-82
2023/10/03 01:00:43;;;;;;;50.15;31.05;;;17.90;95.00;;;;;;5113114;28;20055;-83
2023/10/03 01:03:28;;;;;;;46.00;29.27;;;17.90;95.00;;;;;;5095967;28;20048;-82
2023/10/03 01:05:57;;;;;;;52.92;29.65;;;17.90;95.00;;;;;;5112758;28;20035;-84
2023/10/03 01:08:23;;;;;;;50.25;28.48;;;17.90;95.00;;;;;;5095679;28;20044;-82
2023/10/03 01:10:49;;;;;;;48.75;30.27;;;17.90;94.80;;;;;;5096116;28;20084;-85
2023/10/03 01:13:15;;;;;;;48.53;30.10;;;17.90;94.80;;;;;;5076882;28;20043;-81
2023/10/03 01:15:42;;;;;;;44.20;29.20;;;17.90;94.70;;;;;;5112598;28;20088;-85
2023/10/03 01:18:14;;;;;;;50.22;29.88;;;17.90;94.80;;;;;;5095875;28;20144;-84
2023/10/03 01:20:48;;;;;;;49.50;29.77;;;17.80;94.70;;;;;;5095580;28;20126;-83
2023/10/03 01:23:15;;;;;;;49.33;28.30;;;17.80;94.60;;;;;;5112715;28;20395;-80
2023/10/03 01:25:42;;;;;;;53.63;29.55;;;17.80;94.70;;;;;;5112598;28;20048;-81
2023/10/03 01:28:17;;;;;;;48.75;29.35;;;17.80;94.60;;;;;;5111436;28;20042;-80
2023/10/03 01:30:42;;;;;;;48.45;29.15;;;17.80;94.50;;;;;;5112385;28;20484;-80
2023/10/03 01:33:10;;;;;;;45.65;28.45;;;17.80;94.50;;;;;;5112235;28;20050;-84
2023/10/03 01:35:36;;;;;;;49.40;29.95;;;17.70;94.40;;;;;;5095675;28;20118;-79
2023/10/03 01:38:02;;;;;;;52.55;29.23;;;17.70;94.30;;;;;;5112273;28;20435;-83
2023/10/03 01:40:28;;;;;;;45.95;27.60;;;17.70;94.40;;;;;;5112317;28;20054;-83
2023/10/03 01:42:54;;;;;;;46.08;27.70;;;17.70;94.40;;;;;;5095047;28;20055;-83
2023/10/03 01:45:22;;;;;;;47.10;27.65;;;17.70;94.50;;;;;;5094133;28;20039;-86
2023/10/03 01:47:49;;;;;;;45.88;27.05;;;17.60;94.40;;;;;;5095407;28;20598;-86
2023/10/03 01:50:17;;;;;;;47.28;28.52;;;17.70;94.20;;;;;;5112646;28;20040;-83
2023/10/03 01:52:43;;;;;;;46.67;26.38;;;17.70;94.20;;;;;;5112180;28;20043;-85
2023/10/03 01:55:13;;;;;;;43.00;25.48;;;17.70;94.10;;;;;;5112132;28;20491;-82
2023/10/03 01:57:43;;;;;;;45.17;25.77;;;17.70;94.00;;;;;;5112139;28;20126;-82
2023/10/03 02:02:50;;;;;;;47.10;25.33;;;17.80;93.80;;;;;;5116178;28;20051;-81
2023/10/03 02:05:21;;;;;;;42.90;26.33;;;17.80;93.70;;;;;;5117130;28;20039;-82
2023/10/03 02:07:47;;;;;;;41.95;24.83;;;17.80;93.50;;;;;;5116959;28;20043;-81
2023/10/03 02:10:13;;;;;;;45.40;24.73;;;17.80;93.40;;;;;;5083082;28;20036;-82
2023/10/03 02:12:48;;;;;;;42.10;25.25;;;17.90;93.10;;;;;;5079286;28;20115;-84
2023/10/03 02:15:24;;;;;;;42.55;26.08;;;17.90;92.80;;;;;;5100734;28;20039;-86
2023/10/03 02:17:52;;;;;;;42.60;22.83;;;17.90;92.80;;;;;;5117335;28;20055;-81
2023/10/03 02:20:25;;;;;;;45.47;24.17;;;17.90;92.70;;;;;;5099849;28;20040;-80
2023/10/03 02:22:57;;;;;;;42.55;23.17;;;17.90;92.40;;;;;;5116394;28;20086;-81
2023/10/03 02:25:28;;;;;;;43.20;24.23;;;17.90;92.30;;;;;;5083125;28;20078;-83
2023/10/03 02:27:55;;;;;;;40.05;23.27;;;18.00;92.20;;;;;;5099437;28;20275;-81
2023/10/03 02:30:30;;;;;;;38.65;21.45;;;18.00;92.00;;;;;;5081778;28;20035;-82
2023/10/03 02:33:00;;;;;;;36.03;21.08;;;18.00;91.90;;;;;;5100765;28;20036;-82
2023/10/03 02:35:26;;;;;;;39.08;21.67;;;18.00;91.50;;;;;;5099404;28;20035;-81
2023/10/03 02:37:55;;;;;;;36.22;21.17;;;18.10;91.50;;;;;;5099537;28;20177;-83
2023/10/03 02:40:28;;;;;;;40.35;20.70;;;18.10;91.40;;;;;;5116269;28;20036;-83
2023/10/03 02:42:54;;;;;;;41.15;20.15;;;18.10;91.40;;;;;;5099730;28;20051;-80
2023/10/03 02:45:25;;;;;;;43.20;22.38;;;18.10;91.20;;;;;;5081152;28;20043;-82
2023/10/03 02:47:55;;;;;;;37.88;21.17;;;18.10;90.80;;;;;;5082912;28;20131;-83
2023/10/03 02:50:26;;;;;;;36.22;21.77;;;18.10;90.90;;;;;;5115896;28;20039;-81
2023/10/03 02:52:56;;;;;;;36.17;19.67;;;18.10;90.80;;;;;;5082780;28;20437;-82
2023/10/03 02:55:22;;;;;;;38.75;19.85;;;18.10;91.00;;;;;;5099596;28;20040;-84
2023/10/03 02:57:49;;;;;;;39.90;22.40;;;18.10;90.80;;;;;;5082401;28;20042;-79
2023/10/03 03:00:15;;;;;;;35.08;20.27;;;18.20;90.70;;;;;;5099717;28;20537;-80
2023/10/03 03:02:50;;;;;;;40.45;22.52;;;18.20;90.60;;;;;;5115331;28;20047;-83
2023/10/03 03:05:17;;;;;;;38.80;20.73;;;18.10;90.70;;;;;;5094686;28;20077;-83
2023/10/03 03:07:48;;;;;;;41.75;22.98;;;18.10;90.70;;;;;;5061403;28;20081;-83
2023/10/03 03:10:21;;;;;;;40.50;22.00;;;18.20;90.60;;;;;;5094829;28;20059;-80
2023/10/03 03:12:47;;;;;;;36.58;20.80;;;18.20;90.40;;;;;;5077101;28;20047;-83
2023/10/03 03:15:22;;;;;;;37.88;20.58;;;18.20;90.30;;;;;;5095248;28;20031;-82
2023/10/03 03:17:51;;;;;;;40.30;21.52;;;18.20;90.30;;;;;;5097762;28;20075;-83
2023/10/03 03:20:18;;;;;;;35.80;19.70;;;18.20;89.90;;;;;;5098159;28;20043;-82
2023/10/03 03:22:48;;;;;;;37.78;20.67;;;18.20;90.00;;;;;;5097869;28;20086;-86
2023/10/03 03:25:38;;;;;;;40.47;20.33;;;18.20;90.00;;;;;;5097765;28;20035;-81
2023/10/03 03:28:13;;;;;;;33.88;18.85;;;18.20;90.10;;;;;;5097555;28;20043;-85
2023/10/03 03:30:57;;;;;;;41.05;20.85;;;18.30;90.00;;;;;;5113298;28;20126;-82
2023/10/03 03:33:27;;;;;;;;;;;18.30;89.90;;;;;;5115005;28;20087;-82
2023/10/03 03:35:55;;;;;;;37.35;18.83;;;18.30;89.80;;;;;;5114745;28;20132;-84
2023/10/03 03:38:22;;;;;;;32.38;17.45;;;18.40;89.90;;;;;;5080754;28;20031;-82
2023/10/03 03:40:56;;;;;;;32.10;17.70;;;18.40;89.90;;;;;;5097813;28;20031;-82
2023/10/03 03:43:22;;;;;;;29.35;17.25;;;18.50;89.70;;;;;;5114178;28;20060;-84
2023/10/03 03:45:48;;;;;;;36.53;17.92;;;18.60;89.40;;;;;;5097410;28;20502;-83
2023/10/03 03:48:14;;;;;;;36.58;19.25;;;18.60;89.40;;;;;;5079077;28;20044;-80
2023/10/03 03:50:41;;;;;;;36.58;19.00;;;18.70;89.30;;;;;;5097103;28;20031;-84
2023/10/03 03:53:07;;;;;;;33.88;18.55;;;18.70;89.30;;;;;;5097372;28;20113;-84
2023/10/03 03:55:35;;;;;;;36.58;18.95;;;18.70;89.30;;;;;;5114313;28;20039;-83
2023/10/03 03:58:14;;;;;;;36.63;18.67;;;18.70;89.30;;;;;;5114131;28;20044;-85
2023/10/03 04:00:47;;;;;;;30.85;17.35;;;18.70;89.20;;;;;;5097274;28;20101;-81
2023/10/03 04:03:14;;;;;;;35.72;18.33;;;18.70;89.30;;;;;;5113894;28;20051;-80
2023/10/03 04:05:40;;;;;;;34.22;16.58;;;18.70;89.40;;;;;;5095807;28;20035;-82
2023/10/03 04:08:07;;;;;;;32.53;18.20;;;18.70;89.30;;;;;;5096861;28;20047;-82
2023/10/03 04:10:34;;;;;;;32.72;16.92;;;18.70;89.20;;;;;;5114099;28;20109;-83
2023/10/03 04:13:00;;;;;;;31.10;17.92;;;18.70;89.40;;;;;;5096859;28;20036;-85
2023/10/03 04:15:26;;;;;;;33.40;16.92;;;18.70;89.50;;;;;;5112683;28;20094;-86
2023/10/03 04:17:52;;;;;;;32.47;16.70;;;18.80;89.40;;;;;;5080028;28;20050;-84
2023/10/03 04:20:31;;;;;;;32.88;17.70;;;18.90;89.50;;;;;;5113883;28;20051;-81
2023/10/03 04:22:58;;;;;;;33.28;16.67;;;18.90;89.50;;;;;;5096540;28;20075;-84
2023/10/03 04:25:25;;;;;;;33.60;16.38;;;19.00;89.40;;;;;;5113342;28;20047;-82
2023/10/03 04:27:53;;;;;;;31.98;17.85;;;19.00;89.40;;;;;;5096759;28;20049;-81
2023/10/03 04:30:23;;;;;;;30.92;16.67;;;19.00;89.40;;;;;;5096610;28;20444;-81
2023/10/03 04:32:49;;;;;;;30.85;16.73;;;19.10;89.60;;;;;;5095361;28;20364;-82
2023/10/03 04:35:17;;;;;;;30.15;15.48;;;19.10;89.90;;;;;;5113263;28;20065;-82
2023/10/03 04:37:44;;;;;;;32.35;15.82;;;19.10;90.20;;;;;;5080083;28;20437;-82
2023/10/03 04:40:34;;;;;;;27.13;13.20;;;19.20;90.80;;;;;;5096497;28;20045;-80
2023/10/03 04:42:58;;;;;;;29.75;16.33;;;19.20;90.60;;;;;;5112506;28;20423;-81
2023/10/03 04:45:26;;;;;;;29.05;15.50;;;19.30;91.00;;;;;;5113412;28;20384;-83
2023/10/03 04:47:52;;;;;;;29.52;15.13;;;19.30;91.60;;;;;;5111999;28;20046;-82
2023/10/03 04:50:19;;;;;;;32.30;17.00;;;19.30;91.60;;;;;;5096326;28;20126;-84
2023/10/03 04:52:48;;;;;;;42.40;17.00;;;19.40;92.00;;;;;;5113202;28;20070;-81
2023/10/03 04:55:18;;;;;;;43.10;17.90;;;19.40;92.30;;;;;;5113141;28;20047;-84
2023/10/03 04:57:45;;;;;;;38.00;18.65;;;19.40;92.20;;;;;;5096724;28;20035;-81
2023/10/03 05:00:15;;;;;;;34.45;17.88;;;19.50;92.50;;;;;;5095841;28;20043;-80
2023/10/03 05:02:45;;;;;;;39.63;18.35;;;19.40;92.70;;;;;;5095748;28;20104;-83
2023/10/03 05:05:11;;;;;;;45.25;20.45;;;19.40;92.70;;;;;;5096107;28;20502;-81
2023/10/03 05:07:37;;;;;;;39.38;19.50;;;19.50;92.80;;;;;;5095671;28;20075;-84
2023/10/03 05:10:03;;;;;;;41.33;20.25;;;19.40;93.10;;;;;;5095697;28;20039;-82
2023/10/03 05:12:29;;;;;;;41.80;20.02;;;19.30;93.40;;;;;;5095672;28;20042;-80
2023/10/03 05:14:54;;;;;;;46.97;21.73;;;19.30;93.40;;;;;;5078954;28;20035;-83
2023/10/03 05:17:20;;;;;;;47.17;21.25;;;19.20;93.20;;;;;;5078774;28;20088;-84
2023/10/03 05:19:46;;;;;;;50.70;21.35;;;19.20;93.30;;;;;;5078950;28;20081;-83
2023/10/03 05:22:13;;;;;;;49.55;21.95;;;19.30;93.30;;;;;;5095615;28;20079;-85
2023/10/03 05:24:38;;;;;;;47.38;22.83;;;19.20;93.30;;;;;;5096200;28;20096;-83
2023/10/03 05:27:05;;;;;;;42.85;22.13;;;19.10;93.50;;;;;;5113256;28;20040;-84
2023/10/03 05:29:32;;;;;;;38.53;21.67;;;19.10;93.60;;;;;;5096153;28;20042;-82
2023/10/03 05:32:00;;;;;;;42.67;21.25;;;19.00;93.50;;;;;;5095891;28;20456;-80
2023/10/03 05:34:29;;;;;;;48.08;23.67;;;19.00;93.70;;;;;;5112829;28;20046;-82
2023/10/03 05:36:55;;;;;;;35.50;19.35;;;19.00;93.80;;;;;;5112126;28;20051;-82
2023/10/03 05:39:22;;;;;;;35.90;20.15;;;19.00;93.70;;;;;;5113223;28;20039;-84
2023/10/03 05:41:48;;;;;;;35.90;21.80;;;19.00;93.80;;;;;;5079060;28;20051;-82
2023/10/03 05:44:13;;;;;;;36.15;18.98;;;19.00;93.50;;;;;;5096152;28;20111;-84
2023/10/03 05:46:42;;;;;;;36.40;21.92;;;19.00;93.50;;;;;;5096005;28;20653;-82
2023/10/03 05:49:09;;;;;;;42.05;21.15;;;18.90;93.40;;;;;;5112636;28;20048;-81
2023/10/03 05:51:35;;;;;;;35.20;20.80;;;18.90;93.40;;;;;;5095597;28;20028;-82
2023/10/03 05:54:06;;;;;;;32.17;20.05;;;18.90;93.50;;;;;;5112421;28;20510;-84
2023/10/03 05:56:32;;;;;;;32.45;18.17;;;18.80;93.50;;;;;;5096402;28;20085;-84
2023/10/03 05:59:01;;;;;;;32.05;19.33;;;18.90;93.60;;;;;;5079201;28;20067;-85
2023/10/03 06:01:27;;;;;;;27.10;18.38;;;18.90;93.30;;;;;;5097120;28;20419;-82
2023/10/03 06:03:56;;;;;;;29.88;18.17;;;18.80;93.40;;;;;;5112953;28;20054;-82
2023/10/03 06:06:23;;;;;;;34.63;20.00;;;18.80;93.20;;;;;;5079938;28;20109;-82
2023/10/03 06:08:49;;;;;;;30.75;18.85;;;18.70;93.30;;;;;;5096392;28;20122;-82
2023/10/03 06:11:16;;;;;;;30.33;18.17;;;18.70;93.40;;;;;;5111987;28;20122;-84
2023/10/03 06:13:44;;;;;;;29.92;19.35;;;18.80;93.30;;;;;;5078444;28;20043;-81
2023/10/03 06:16:14;;;;;;;28.23;16.70;;;18.70;93.40;;;;;;5078661;28;20086;-81
2023/10/03 06:18:41;;;;;;;29.83;17.25;;;18.70;93.40;;;;;;5111918;28;20343;-82
2023/10/03 06:21:07;;;;;;;28.20;14.70;;;18.80;93.10;;;;;;5111854;28;20039;-82
2023/10/03 06:23:34;;;;;;;30.15;14.27;;;18.70;93.00;;;;;;5111891;28;20048;-82
2023/10/03 06:26:01;;;;;;;33.35;15.52;;;18.70;93.10;;;;;;5095972;28;20039;-79
2023/10/03 06:28:28;;;;;;;34.58;13.65;;;18.70;93.00;;;;;;5078798;28;20042;-83
2023/10/03 06:30:55;;;;;;;36.70;12.10;;;18.70;92.70;;;;;;5078343;28;20035;-84
2023/10/03 06:33:21;;;;;;;35.63;14.63;;;18.60;93.00;;;;;;5111752;28;20035;-84
2023/10/03 06:35:50;;;;;;;44.80;13.13;;;18.50;92.90;;;;;;5101014;28;20628;-83
2023/10/03 06:38:16;;;;;;;30.58;11.15;;;18.50;92.80;;;;;;5063213;28;20054;-81
2023/10/03 06:40:43;;;;;;;33.90;10.48;;;18.40;92.60;;;;;;5103955;28;20111;-84
2023/10/03 06:43:09;;;;;;;25.65;8.98;;;18.30;92.20;;;;;;5102721;28;20070;-82
2023/10/03 06:45:35;;;;;;;24.13;10.07;;;18.20;92.20;;;;;;5085014;28;20052;-81
2023/10/03 06:48:03;;;;;;;18.83;7.57;;;18.10;92.10;;;;;;5104934;28;20040;-82
2023/10/03 06:50:30;;;;;;;20.70;7.03;;;18.00;91.90;;;;;;5096755;28;20101;-82
2023/10/03 06:52:56;;;;;;;27.63;8.02;;;18.00;91.60;;;;;;5089412;28;20042;-83
2023/10/03 06:55:22;;;;;;;22.83;6.70;;;17.90;91.50;;;;;;5105349;27;20044;-83
2023/10/03 06:57:47;;;;;;;17.52;6.10;;;17.80;91.70;;;;;;5067894;28;21379;-83
2023/10/03 07:00:14;;;;;;;17.55;5.60;;;17.80;91.90;;;;;;5060510;28;20048;-83
2023/10/03 07:02:40;;;;;;;19.95;5.82;;;17.70;92.10;;;;;;5089274;28;20043;-84
2023/10/03 07:05:07;;;;;;;15.90;5.80;;;17.60;92.10;;;;;;5087684;28;20126;-80
2023/10/03 07:07:34;;;;;;;17.35;5.18;;;17.60;92.00;;;;;;5089349;28;20035;-82
2023/10/03 07:10:00;;;;;;;16.30;4.25;;;17.50;91.90;;;;;;5089431;28;20497;-82
2023/10/03 07:12:26;;;;;;;16.58;3.97;;;17.50;92.40;;;;;;5089375;28;20036;-81
2023/10/03 07:14:51;;;;;;;18.15;4.30;;;17.50;92.30;;;;;;5104258;28;20117;-80
2023/10/03 07:17:17;;;;;;;13.20;3.97;;;17.50;92.20;;;;;;5089026;28;20584;-83
2023/10/03 07:19:48;;;;;;;12.88;3.88;;;17.50;92.40;;;;;;5088606;28;20139;-83
2023/10/03 07:22:14;;;;;;;13.95;4.40;;;17.50;92.00;;;;;;5088301;28;20043;-83
2023/10/03 07:24:40;;;;;;;13.80;3.70;;;17.40;91.90;;;;;;5087703;28;20052;-80
2023/10/03 07:27:11;;;;;;;17.35;5.38;;;17.40;91.90;;;;;;5104281;28;20085;-81
2023/10/03 07:29:37;;;;;;;15.50;3.38;;;17.30;91.70;;;;;;5083329;28;20123;-81
2023/10/03 07:32:03;;;;;;;10.23;3.33;;;17.30;91.60;;;;;;5088763;28;20118;-81
2023/10/03 07:34:29;;;;;;;10.70;2.60;;;17.20;91.30;;;;;;5105382;28;20084;-81
2023/10/03 07:36:57;;;;;;;11.60;2.72;;;17.20;91.20;;;;;;5086977;28;20052;-82
2023/10/03 07:39:26;;;;;;;13.02;3.63;;;17.10;91.30;;;;;;5102089;28;20056;-83
2023/10/03 07:41:51;;;;;;;9.55;2.50;;;17.10;91.20;;;;;;5088874;28;20051;-82
2023/10/03 07:44:25;;;;;;;8.40;2.55;;;17.00;91.20;;;;;;5101820;28;20132;-83
2023/10/03 07:46:51;;;;;;;11.13;2.78;;;17.00;91.20;;;;;;5054611;28;20043;-82
2023/10/03 07:49:17;;;;;;;10.10;2.33;;;17.00;90.90;;;;;;5088269;28;20092;-82
2023/10/03 07:51:42;;;;;;;9.93;2.08;;;17.00;90.50;;;;;;5104736;28;20039;-81
2023/10/03 07:54:08;;;;;;;8.98;1.95;;;17.00;90.40;;;;;;5104951;28;20048;-83
2023/10/03 07:56:34;;;;;;;9.02;2.15;;;17.00;90.50;;;;;;5086328;28;20380;-84
2023/10/03 07:59:04;;;;;;;10.98;1.88;;;17.00;90.40;;;;;;5087569;28;20036;-80
2023/10/03 08:01:31;;;;;;;9.95;2.05;;;17.00;90.30;;;;;;5088028;28;20040;-81
2023/10/03 08:03:58;;;;;;;6.72;2.10;;;17.00;90.20;;;;;;5105475;28;20658;-79
2023/10/03 08:06:33;;;;;;;8.95;1.88;;;17.00;90.40;;;;;;5103014;28;20081;-82
2023/10/03 08:08:59;;;;;;;6.65;1.65;;;17.00;90.40;;;;;;5104810;28;20517;-83
2023/10/03 08:11:29;;;;;;;7.72;1.60;;;17.00;90.30;;;;;;5104809;28;20044;-82
2023/10/03 08:13:59;;;;;;;7.22;1.88;;;17.00;90.70;;;;;;5088124;28;20053;-82
2023/10/03 08:16:27;;;;;;;5.93;1.20;;;17.00;90.30;;;;;;5086341;28;20047;-82
2023/10/03 08:19:01;;;;;;;4.57;1.10;;;16.90;90.40;;;;;;5087805;28;20570;-83
2023/10/03 08:21:28;;;;;;;7.47;1.17;;;16.70;90.30;;;;;;5088059;28;20395;-82
2023/10/03 08:23:58;;;;;;;5.30;1.10;;;16.50;90.30;;;;;;5065683;28;20100;-81
2023/10/03 08:26:27;;;;;;;3.92;1.27;;;16.50;90.50;;;;;;5085832;28;20111;-81
2023/10/03 08:28:59;;;;;;;6.57;1.08;;;16.40;90.80;;;;;;5103911;28;20110;-81
2023/10/03 08:31:28;;;;;;;17.92;2.13;;;16.40;90.60;;;;;;5071497;28;20463;-81
2023/10/03 08:33:57;;;;;;;3.75;1.05;;;16.50;90.30;;;;;;5087595;28;20486;-81
2023/10/03 08:36:27;;;;;;;4.85;1.10;;;16.50;90.20;;;;;;5085712;28;20039;-83
2023/10/03 08:39:04;;;;;;;4.20;1.25;;;16.50;89.50;;;;;;5087598;28;20798;-82
2023/10/03 08:42:19;;;;;;;6.00;0.90;;;16.40;89.10;;;;;;5088810;28;20056;-81
2023/10/03 08:44:53;;;;;;;6.45;1.00;;;16.30;89.10;;;;;;5076993;28;20055;-82
2023/10/03 08:47:28;;;;;;;4.15;1.63;;;16.20;89.70;;;;;;5100705;28;20047;-84
2023/10/03 08:50:10;;;;;;;10.50;1.08;;;16.20;90.10;;;;;;5104316;28;20079;-83
2023/10/03 08:52:48;;;;;;;5.20;0.90;;;16.10;90.50;;;;;;5086402;28;20378;-82
2023/10/03 08:55:19;;;;;;;5.07;1.10;;;16.10;90.40;;;;;;5102233;28;20144;-84
2023/10/03 08:57:51;;;;;;;5.80;0.90;;;16.00;90.40;;;;;;5104247;28;20055;-84
2023/10/03 09:00:18;;;;;;;2.90;0.70;;;16.00;90.40;;;;;;5085973;28;20058;-83
2023/10/03 09:02:49;;;;;;;5.55;0.88;;;16.00;90.40;;;;;;5104096;28;20047;-85
2023/10/03 09:05:19;;;;;;;4.28;1.02;;;16.00;89.80;;;;;;5101889;28;20080;-84
2023/10/03 09:07:49;;;;;;;7.25;1.52;;;16.00;89.60;;;;;;5104013;28;20048;-81
2023/10/03 09:10:25;;;;;;;2.90;1.10;;;16.00;89.00;;;;;;5104718;28;20044;-85
2023/10/03 09:12:52;;;;;;;6.45;1.45;;;16.10;88.20;;;;;;5104193;28;20173;-83
2023/10/03 09:15:22;;;;;;;5.55;1.15;;;16.20;88.60;;;;;;5086482;28;20452;-84
2023/10/03 09:17:50;;;;;;;4.95;0.85;;;16.10;88.50;;;;;;5106503;28;20051;-82
2023/10/03 09:20:23;;;;;;;2.65;0.80;;;16.00;88.50;;;;;;5105764;28;20528;-82
2023/10/03 09:22:49;;;;;;;2.03;0.98;;;16.00;88.00;;;;;;5088085;28;20039;-83
2023/10/03 09:25:21;;;;;;;3.90;1.08;;;15.90;87.90;;;;;;5101728;28;20043;-85
2023/10/03 09:27:47;;;;;;;1.45;0.57;;;16.00;87.70;;;;;;5088173;28;20048;-83
2023/10/03 09:30:22;;;;;;;2.70;0.90;;;16.00;87.40;;;;;;5086621;28;21295;-83
2023/10/03 09:32:50;;;;;;;3.10;1.17;;;16.00;87.20;;;;;;5059790;28;20047;-81
2023/10/03 09:35:16;;;;;;;2.88;1.23;;;16.00;87.20;;;;;;5102169;28;20428;-82
2023/10/03 09:37:48;;;;;;;3.65;1.98;;;16.00;87.20;;;;;;5102932;28;20048;-80
2023/10/03 09:40:17;;;;;;;4.38;1.67;;;16.10;87.10;;;;;;5086072;28;20092;-81
2023/10/03 09:42:49;;;;;;;7.10;1.50;;;16.20;86.40;;;;;;5086151;28;20058;-82
2023/10/03 09:45:18;;;;;;;3.70;1.20;;;16.20;86.40;;;;;;5084953;28;20467;-81
2023/10/03 09:47:45;;;;;;;6.15;1.52;;;16.30;86.20;;;;;;5094021;28;20047;-78
2023/10/03 09:50:12;;;;;;;5.68;2.25;;;16.30;86.10;;;;;;5106471;28;20437;-80
2023/10/03 09:52:40;;;;;;;8.02;2.08;;;16.40;86.40;;;;;;5103879;28;20067;-83
2023/10/03 09:55:21;;;;;;;7.72;1.70;;;16.40;85.60;;;;;;5085119;28;20471;-81
2023/10/03 09:57:51;;;;;;;9.95;1.67;;;16.40;85.40;;;;;;5083185;28;20511;-83
2023/10/03 10:03:11;;;;;;;6.60;1.70;;;16.40;84.60;;;;;;5103354;28;20075;-82
2023/10/03 10:05:46;;;;;;;4.47;1.42;;;16.30;84.50;;;;;;5086415;28;20130;-83
2023/10/03 10:08:20;;;;;;;5.97;1.30;;;16.30;84.30;;;;;;5104766;28;20055;-83
2023/10/03 10:11:09;;;;;;;4.65;1.15;;;16.40;84.90;;;;;;5105303;28;20402;-83
2023/10/03 10:13:37;;;;;;;5.85;1.38;;;16.40;85.00;;;;;;5062545;28;20043;-82
2023/10/03 10:16:07;;;;;;;3.65;1.27;;;16.30;84.60;;;;;;5086167;28;20070;-86
2023/10/03 10:18:45;;;;;;;3.53;1.17;;;16.30;83.90;;;;;;5086669;28;20036;-85
2023/10/03 10:21:20;;;;;;;7.25;1.50;;;16.10;83.50;;;;;;5086068;28;20448;-85
2023/10/03 10:24:11;;;;;;;4.72;1.50;;;16.10;84.00;;;;;;5106380;28;20078;-84
2023/10/03 10:26:38;;;;;;;4.60;1.10;;;16.00;84.70;;;;;;5088403;28;20114;-86
2023/10/03 10:29:08;;;;;;;4.05;1.38;;;16.10;84.50;;;;;;5090127;28;20122;-85
2023/10/03 10:31:42;;;;;;;7.18;1.85;;;16.10;84.60;;;;;;5090395;28;20395;-86
2023/10/03 10:34:23;;;;;;;5.65;1.48;;;16.00;84.80;;;;;;5090333;28;20036;-87
2023/10/03 10:37:09;;;;;;;2.60;1.27;;;15.90;85.10;;;;;;5105102;28;20098;-86
2023/10/03 10:39:53;;;;;;;4.38;1.80;;;15.60;85.30;;;;;;5107339;28;20043;-86
2023/10/03 10:42:24;;;;;;;3.80;1.70;;;15.40;86.10;;;;;;5106858;28;20054;-85
2023/10/03 10:45:15;;;;;;;6.47;2.00;;;15.20;86.70;;;;;;5080029;28;20054;-86
2023/10/03 10:47:46;;;;;;;5.38;1.88;;;15.20;86.90;;;;;;5105419;28;20043;-84
2023/10/03 10:50:12;;;;;;;4.80;1.63;;;15.20;87.10;;;;;;5089839;28;20043;-84
2023/10/03 10:52:53;;;;;;;4.40;1.60;;;15.10;87.50;;;;;;5078629;28;20058;-84
2023/10/03 10:55:25;;;;;;;6.75;1.88;;;15.20;87.50;;;;;;5105242;28;20050;-84
2023/10/03 10:58:13;;;;;;;7.00;2.15;;;15.20;87.50;;;;;;5089115;28;20495;-87
2023/10/03 11:00:40;;;;;;;9.38;2.95;;;15.20;88.00;;;;;;5105907;28;20525;-85
2023/10/03 11:03:07;;;;;;;8.48;3.10;;;15.20;87.90;;;;;;5114221;28;20044;-87
2023/10/03 11:05:43;;;;;;;9.38;2.55;;;15.20;87.60;;;;;;5114800;28;20092;-84
2023/10/03 11:08:10;;;;;;;8.35;3.08;;;15.20;87.40;;;;;;5114420;28;20040;-83
2023/10/03 11:10:52;;;;;;;12.43;2.92;;;15.20;87.20;;;;;;5114533;28;20051;-86
2023/10/03 11:13:19;;;;;;;8.68;2.50;;;15.30;86.80;;;;;;5097545;28;20071;-86
2023/10/03 11:16:04;;;;;;;6.75;2.53;;;15.30;86.70;;;;;;5114666;28;20044;-85
2023/10/03 11:18:31;;;;;;;6.75;2.63;;;15.40;86.00;;;;;;5098271;28;20040;-83
2023/10/03 11:20:59;;;;;;;8.70;2.33;;;15.40;86.20;;;;;;5114802;28;20040;-83
2023/10/03 11:23:25;;;;;;;8.93;2.33;;;15.40;85.90;;;;;;5114948;28;20167;-85
2023/10/03 11:25:58;;;;;;;9.77;2.42;;;15.40;85.50;;;;;;5114758;28;20513;-85
2023/10/03 11:28:25;;;;;;;11.18;2.63;;;15.50;85.20;;;;;;5097756;28;20572;-83
2023/10/03 11:31:23;;;;;;;11.20;2.75;;;15.50;85.00;;;;;;5097987;28;20067;-84
2023/10/03 11:33:49;;;;;;;9.35;2.65;;;15.60;84.50;;;;;;5063920;28;20043;-84
2023/10/03 11:36:14;;;;;;;5.03;1.98;;;15.60;84.20;;;;;;5114571;28;20494;-85
2023/10/03 11:38:47;;;;;;;7.18;2.80;;;15.70;83.30;;;;;;5115317;28;20044;-83
2023/10/03 11:41:13;;;;;;;10.23;2.67;;;15.90;82.40;;;;;;5114486;28;20039;-82
2023/10/03 11:43:49;;;;;;;9.52;2.25;;;16.00;81.90;;;;;;5114219;28;20051;-83
2023/10/03 11:46:15;;;;;;;11.80;2.40;;;16.00;81.70;;;;;;5097483;28;20050;-85
2023/10/03 11:48:41;;;;;;;6.43;1.80;;;16.20;81.40;;;;;;5114652;28;20067;-87
2023/10/03 11:51:07;;;;;;;7.50;1.80;;;16.20;80.90;;;;;;5097666;28;20124;-84
2023/10/03 11:53:33;;;;;;;7.63;2.17;;;16.20;80.30;;;;;;5097716;28;20039;-85
2023/10/03 11:55:59;;;;;;;9.23;2.38;;;16.30;81.00;;;;;;5097621;28;20469;-88
2023/10/03 11:58:26;;;;;;;6.25;1.90;;;16.20;80.60;;;;;;5097956;28;20065;-87
2023/10/03 12:00:53;;;;;;;6.95;2.10;;;16.30;81.10;;;;;;5114721;28;20078;-88
2023/10/03 12:03:19;;;;;;;14.27;2.50;;;16.30;81.70;;;;;;5097355;28;20077;-87
2023/10/03 12:05:46;;;;;;;7.13;1.90;;;16.20;81.30;;;;;;5114506;28;20075;-86
2023/10/03 12:08:12;;;;;;;7.43;2.05;;;16.10;81.60;;;;;;5097076;28;20050;-84
2023/10/03 12:10:40;;;;;;;6.90;2.83;;;16.10;82.40;;;;;;5097108;28;20032;-85
2023/10/03 12:13:09;;;;;;;9.20;2.28;;;16.10;82.10;;;;;;5097046;28;20077;-85
2023/10/03 12:15:41;;;;;;;8.43;2.30;;;16.00;82.30;;;;;;5097344;28;20043;-83
2023/10/03 12:18:06;;;;;;;7.68;2.33;;;15.90;82.80;;;;;;5114164;28;20043;-84
2023/10/03 12:20:33;;;;;;;11.45;2.92;;;16.00;83.20;;;;;;5113890;28;20084;-86
2023/10/03 12:22:58;;;;;;;9.25;2.50;;;16.00;83.80;;;;;;5113767;28;20476;-82
2023/10/03 12:25:27;;;;;;;11.10;3.13;;;16.00;83.90;;;;;;5113719;28;20089;-84
2023/10/03 12:27:53;;;;;;;13.18;2.53;;;16.10;83.60;;;;;;5113698;28;20395;-84
2023/10/03 12:30:19;;;;;;;9.82;2.30;;;16.10;83.70;;;;;;5096605;28;20043;-83
2023/10/03 12:32:46;;;;;;;10.20;2.20;;;16.10;83.80;;;;;;5113454;28;20403;-82
2023/10/03 12:35:13;;;;;;;7.07;2.00;;;16.20;83.40;;;;;;5096584;28;20036;-83
2023/10/03 12:37:39;;;;;;;7.80;2.33;;;16.20;81.30;;;;;;5096504;28;20173;-83
2023/10/03 12:40:15;;;;;;;9.77;2.28;;;16.20;80.80;;;;;;5113172;28;20475;-84
2023/10/03 12:42:48;;;;;;;9.13;2.60;;;16.30;80.30;;;;;;5096141;28;20089;-83
2023/10/03 12:45:18;;;;;;;9.93;2.05;;;16.40;80.60;;;;;;5096198;28;20044;-83
2023/10/03 12:47:48;;;;;;;8.98;2.22;;;16.50;79.90;;;;;;5113137;28;20136;-83
2023/10/03 12:50:27;;;;;;;7.07;2.10;;;16.50;79.80;;;;;;5113313;28;20043;-84
2023/10/03 12:52:58;;;;;;;7.00;2.08;;;16.50;79.40;;;;;;5096488;28;20130;-84
2023/10/03 12:55:26;;;;;;;6.60;2.25;;;16.90;78.00;;;;;;5113360;28;20047;-84
2023/10/03 12:57:54;;;;;;;6.68;2.03;;;17.00;78.30;;;;;;5112970;28;20039;-84